Time;durP1;ratioP1;P1;durP2;ratioP2;P2;SDS_P1;SDS_P2;PMS_P1;PMS_P2;Temp;Humidity;BMP_temperature;BMP_pressure;BME280_temperature;BME280_humidity;BME280_pressure;Samples;Min_cycle;Max_cycle;Signal;HPM_P1;HPM_P2
2023/05/28 00:01:54;;;;;;;9.25;5.13;;;;;;;14.32;75.41;102043.28;5130552;27;20080;-37
2023/05/28 00:04:21;;;;;;;10.63;5.85;;;;;;;14.26;76.92;102049.63;5130831;27;20076;-37
2023/05/28 00:06:48;;;;;;;9.02;5.18;;;;;;;14.18;77.69;102046.13;5130764;27;20072;-37
2023/05/28 00:09:14;;;;;;;9.40;5.45;;;;;;;14.17;77.80;102041.75;5130378;27;20110;-37
2023/05/28 00:11:39;;;;;;;;;;;;;;;14.33;73.87;102034.03;5122432;27;20055;-37
2023/05/28 00:14:05;;;;;;;8.90;5.70;;;;;;;14.04;78.05;102035.63;5116650;28;19987;-36
2023/05/28 00:16:30;;;;;;;12.48;5.32;;;;;;;14.13;78.13;102029.66;5117240;28;20024;-37
2023/05/28 00:18:55;;;;;;;;;;;;;;;14.19;74.66;102033.34;5117279;28;20519;-37
2023/05/28 00:21:21;;;;;;;11.13;6.35;;;;;;;13.95;78.88;102026.91;5117107;28;19911;-36
2023/05/28 00:23:46;;;;;;;8.27;5.47;;;;;;;13.95;79.08;102029.63;5117253;28;20043;-36
2023/05/28 00:26:11;;;;;;;;;;;;;;;14.09;75.33;102038.50;5117781;28;20046;-37
2023/05/28 00:28:37;;;;;;;8.50;5.97;;;;;;;13.74;78.78;102043.66;5116646;28;19911;-36
2023/05/28 00:31:02;;;;;;;11.70;5.57;;;;;;;13.93;79.91;102036.38;5117193;28;20695;-36
2023/05/28 00:33:27;;;;;;;13.27;6.07;;;;;;;13.78;81.12;102048.41;5116510;28;20300;-37
2023/05/28 00:35:55;;;;;;;;;;;;;;;13.93;77.05;102058.94;5116986;28;20024;-36
2023/05/28 00:38:21;;;;;;;;;;;;;;;13.92;75.89;102057.28;5116885;28;19994;-36
2023/05/28 00:40:46;;;;;;;11.32;6.55;;;;;;;13.51;81.55;102047.81;5116638;28;20426;-36
2023/05/28 00:43:11;;;;;;;;;;;;;;;13.75;76.76;102053.47;5116795;28;20107;-36
2023/05/28 00:45:39;;;;;;;9.25;6.13;;;;;;;13.49;81.92;102049.09;5116340;28;19915;-36
2023/05/28 00:48:05;;;;;;;10.77;6.40;;;;;;;13.41;83.78;102047.47;5116814;28;20027;-36
2023/05/28 00:50:30;;;;;;;;;;;;;;;13.56;78.60;102038.97;5116993;28;20027;-36
2023/05/28 00:52:56;;;;;;;9.70;6.22;;;;;;;13.25;84.12;102026.28;5116412;28;20002;-36
2023/05/28 00:55:22;;;;;;;11.40;6.57;;;;;;;13.24;85.24;102039.03;5117023;28;20028;-36
2023/05/28 00:57:49;;;;;;;10.77;6.82;;;;;;;13.17;85.39;102034.66;5116069;28;20019;-36
2023/05/28 01:00:16;;;;;;;11.15;6.55;;;;;;;13.11;85.66;102048.06;5116124;28;20044;-36
2023/05/28 01:02:41;;;;;;;9.27;6.32;;;;;;;13.11;86.56;102037.19;5116565;27;20037;-36
2023/05/28 01:05:08;;;;;;;;;;;;;;;13.27;81.77;102035.84;5116718;28;20110;-36
2023/05/28 01:07:33;;;;;;;10.93;6.55;;;;;;;13.07;86.42;102044.09;5115955;28;19969;-36
2023/05/28 01:09:58;;;;;;;;;;;;;;;13.24;81.65;102039.03;5116775;28;20063;-36
2023/05/28 01:12:25;;;;;;;10.60;6.47;;;;;;;13.08;85.71;102037.66;5116073;28;19918;-36
2023/05/28 01:14:53;;;;;;;10.40;6.07;;;;;;;13.01;86.79;102036.00;5115773;28;20450;-36
2023/05/28 01:17:19;;;;;;;11.57;6.93;;;;;;;12.83;87.85;102018.59;5115722;28;20039;-36
2023/05/28 01:19:47;;;;;;;;;;;;;;;13.14;83.24;102035.94;5116056;28;20032;-36
2023/05/28 01:22:16;;;;;;;13.52;6.70;;;;;;;13.05;87.48;102034.53;5115983;28;19915;-37
2023/05/28 01:24:43;;;;;;;12.27;6.68;;;;;;;12.98;87.97;102042.72;5115159;28;20062;-36
2023/05/28 01:27:08;;;;;;;11.18;6.07;;;;;;;12.97;85.80;102046.47;5115826;28;20024;-36
2023/05/28 01:29:33;;;;;;;;;;;;;;;13.11;83.49;102036.38;5116129;28;20432;-37
2023/05/28 01:32:00;;;;;;;8.70;6.00;;;;;;;12.78;88.87;102026.53;5115487;28;20059;-36
2023/05/28 01:34:25;;;;;;;9.05;5.45;;;;;;;12.87;89.27;102029.81;5115067;28;20750;-36
2023/05/28 01:36:58;;;;;;;;;;;;;;;13.03;84.74;102048.34;5116085;28;20149;-36
2023/05/28 01:39:26;;;;;;;14.60;6.97;;;;;;;12.87;88.81;102040.69;5115495;28;19912;-36
2023/05/28 01:41:54;;;;;;;11.85;6.10;;;;;;;12.90;88.27;102040.25;5115234;28;20031;-37
2023/05/28 01:44:19;;;;;;;12.25;6.25;;;;;;;12.87;88.05;102037.97;5115745;28;20015;-37
2023/05/28 01:46:49;;;;;;;11.52;5.93;;;;;;;12.77;88.92;102035.72;5115160;28;20170;-36
2023/05/28 01:49:14;;;;;;;9.65;5.70;;;;;;;12.70;88.84;102034.09;5115296;27;20375;-36
2023/05/28 01:51:40;;;;;;;11.93;6.00;;;;;;;12.73;88.04;102031.75;5115576;28;20030;-36
2023/05/28 01:54:05;;;;;;;10.63;6.68;;;;;;;12.59;90.74;102022.88;5115013;28;20471;-36
2023/05/28 01:56:31;;;;;;;10.15;6.03;;;;;;;12.56;88.86;102023.31;5115036;28;20459;-36
2023/05/28 01:58:56;;;;;;;9.57;6.18;;;;;;;12.59;89.55;102027.44;5114765;28;20031;-36
2023/05/28 02:01:29;;;;;;;12.02;6.40;;;;;;;12.64;89.65;102022.22;5115388;28;20055;-36
2023/05/28 02:03:56;;;;;;;12.18;6.30;;;;;;;12.58;89.34;102020.34;5114835;28;20020;-36
2023/05/28 02:06:23;;;;;;;10.07;5.80;;;;;;;12.47;85.41;102021.03;5115075;28;20023;-36
2023/05/28 02:08:48;;;;;;;11.95;6.68;;;;;;;12.54;89.72;102013.69;5114941;28;20024;-36
2023/05/28 02:11:14;;;;;;;11.85;6.38;;;;;;;12.47;89.58;102019.16;5114733;28;20437;-36
2023/05/28 02:13:39;;;;;;;;;;;;;;;12.64;86.36;102016.81;5115091;28;20030;-36
2023/05/28 02:16:06;;;;;;;10.50;5.90;;;;;;;12.41;91.13;102009.19;5114608;28;20256;-36
2023/05/28 02:18:31;;;;;;;10.27;6.63;;;;;;;12.38;91.01;102009.59;5114773;28;20023;-36
2023/05/28 02:20:57;;;;;;;11.63;5.85;;;;;;;12.30;90.32;102007.13;5114167;27;20035;-36
2023/05/28 02:23:22;;;;;;;10.45;6.05;;;;;;;12.30;90.36;102007.97;5114230;28;20088;-36
2023/05/28 02:25:48;;;;;;;10.90;5.90;;;;;;;12.21;91.37;102003.81;5115321;28;20020;-36
2023/05/28 02:28:13;;;;;;;10.55;5.75;;;;;;;12.32;91.30;102010.47;5114158;28;20024;-36
2023/05/28 02:30:38;;;;;;;10.03;6.17;;;;;;;12.25;91.44;102018.63;5115009;28;20059;-36
2023/05/28 02:33:04;;;;;;;14.33;6.33;;;;;;;12.14;91.71;102008.41;5115151;28;20261;-36
2023/05/28 02:35:30;;;;;;;10.43;5.70;;;;;;;12.23;89.72;102023.41;5114654;28;20089;-36
2023/05/28 02:37:56;;;;;;;10.95;6.20;;;;;;;12.07;90.96;102013.88;5113913;28;20024;-36
2023/05/28 02:40:21;;;;;;;10.50;5.27;;;;;;;12.08;91.58;102004.69;5114484;28;20053;-36
2023/05/28 02:42:46;;;;;;;12.35;5.90;;;;;;;12.05;91.46;101999.72;5114248;28;20030;-36
2023/05/28 02:45:12;;;;;;;10.48;5.28;;;;;;;12.07;91.26;102004.91;5114196;28;20472;-36
2023/05/28 02:47:37;;;;;;;11.73;5.90;;;;;;;11.99;92.96;102016.81;5114960;28;20111;-36
2023/05/28 02:50:03;;;;;;;9.25;5.78;;;;;;;11.95;91.96;102003.88;5114371;28;20410;-36
2023/05/28 02:52:28;;;;;;;11.07;5.75;;;;;;;12.07;92.45;102011.16;5114101;28;20028;-36
2023/05/28 02:54:53;;;;;;;9.33;5.70;;;;;;;11.85;92.63;101999.72;5113722;28;20031;-36
2023/05/28 02:57:19;;;;;;;9.53;5.03;;;;;;;12.00;92.68;102018.47;5114646;28;20259;-36
2023/05/28 02:59:44;;;;;;;13.95;6.95;;;;;;;12.01;91.84;102025.56;5113581;28;20056;-36
2023/05/28 03:02:10;;;;;;;11.43;5.80;;;;;;;11.92;92.82;102015.16;5114076;28;20468;-36
2023/05/28 03:04:35;;;;;;;8.65;5.32;;;;;;;11.90;92.44;102022.66;5113947;28;20023;-36
2023/05/28 03:07:02;;;;;;;11.07;6.10;;;;;;;11.84;94.15;102017.03;5114791;28;20031;-36
2023/05/28 03:09:27;;;;;;;11.80;5.68;;;;;;;11.87;92.02;102004.97;5114115;28;20284;-36
2023/05/28 03:11:52;;;;;;;11.85;5.90;;;;;;;11.73;93.04;102008.69;5114429;28;20032;-36
2023/05/28 03:14:18;;;;;;;12.00;5.45;;;;;;;11.79;94.17;102013.25;5114128;28;20031;-36
2023/05/28 03:16:43;;;;;;;9.77;5.30;;;;;;;11.83;94.70;102017.25;5114176;28;20023;-36
2023/05/28 03:19:09;;;;;;;10.43;5.70;;;;;;;11.77;94.72;102012.66;5113427;28;20745;-36
2023/05/28 03:21:35;;;;;;;9.68;5.53;;;;;;;11.72;94.81;102020.59;5114426;28;20034;-36
2023/05/28 03:24:00;;;;;;;10.43;5.85;;;;;;;11.72;94.54;102026.84;5113521;28;20118;-36
2023/05/28 03:26:28;;;;;;;8.57;5.32;;;;;;;11.77;95.65;102018.06;5114358;28;20062;-36
2023/05/28 03:28:54;;;;;;;10.88;5.78;;;;;;;11.73;95.92;102027.66;5113973;28;20046;-36
2023/05/28 03:31:20;;;;;;;9.50;5.43;;;;;;;11.71;95.43;102021.59;5114012;28;20457;-36
2023/05/28 03:33:45;;;;;;;11.32;5.72;;;;;;;11.65;94.83;102022.44;5114227;28;20508;-36
2023/05/28 03:36:11;;;;;;;12.30;5.50;;;;;;;11.62;95.17;102022.88;5113429;28;20060;-36
2023/05/28 03:38:39;;;;;;;7.97;5.40;;;;;;;11.63;94.46;102021.84;5113592;28;20055;-36
2023/05/28 03:41:04;;;;;;;12.10;6.13;;;;;;;11.62;96.93;102021.00;5114329;28;20036;-36
2023/05/28 03:43:30;;;;;;;9.10;5.22;;;;;;;11.50;96.95;102025.38;5114402;28;20023;-36
2023/05/28 03:45:55;;;;;;;11.65;5.65;;;;;;;11.50;97.23;102026.19;5114873;28;20114;-36
2023/05/28 03:48:21;;;;;;;12.85;5.70;;;;;;;11.48;98.43;102020.16;5117439;28;20024;-36
2023/05/28 03:50:46;;;;;;;10.43;5.40;;;;;;;11.50;98.54;102020.78;5117748;28;20450;-36
2023/05/28 03:53:11;;;;;;;9.77;5.35;;;;;;;11.60;97.72;102021.19;5117441;28;20261;-36
2023/05/28 03:55:38;;;;;;;9.30;5.90;;;;;;;11.54;99.51;102026.63;5117063;27;20024;-36
2023/05/28 03:58:04;;;;;;;14.65;6.22;;;;;;;11.62;100.00;102028.31;5117168;28;20269;-36
2023/05/28 04:00:29;;;;;;;12.18;5.57;;;;;;;11.65;99.05;102033.28;5117586;28;20058;-36
2023/05/28 04:02:54;;;;;;;8.60;5.33;;;;;;;11.66;99.08;102018.69;5116865;28;20034;-36
2023/05/28 04:05:20;;;;;;;14.05;6.03;;;;;;;11.56;99.87;102019.09;5117403;28;20024;-36
2023/05/28 04:07:45;;;;;;;8.43;5.65;;;;;;;11.70;99.18;102030.78;5117061;28;20471;-36
2023/05/28 04:10:10;;;;;;;10.82;6.13;;;;;;;11.60;99.91;102042.03;5117062;28;20387;-36
2023/05/28 04:12:36;;;;;;;12.25;5.97;;;;;;;11.71;99.95;102035.16;5116950;27;20120;-36
2023/05/28 04:15:02;;;;;;;12.77;6.18;;;;;;;11.67;99.84;102037.47;5116708;28;20189;-36
2023/05/28 04:17:28;;;;;;;10.63;5.82;;;;;;;11.63;100.00;102024.53;5117759;28;20035;-36
2023/05/28 04:19:53;;;;;;;11.87;6.33;;;;;;;11.67;100.00;102033.94;5116826;28;20019;-36
2023/05/28 04:22:20;;;;;;;9.57;5.28;;;;;;;11.72;100.00;102031.41;5117116;28;20263;-36
2023/05/28 04:24:47;;;;;;;8.57;5.70;;;;;;;11.77;100.00;102037.03;5116402;28;20056;-36
2023/05/28 04:27:12;;;;;;;10.65;5.70;;;;;;;11.79;100.00;102034.94;5116707;28;20068;-36
2023/05/28 04:29:38;;;;;;;9.88;5.82;;;;;;;11.72;100.00;102034.13;5116648;28;20035;-36
2023/05/28 04:32:04;;;;;;;13.40;6.40;;;;;;;11.82;100.00;102054.38;5116640;28;20023;-36
2023/05/28 04:34:32;;;;;;;12.02;6.47;;;;;;;11.81;100.00;102046.44;5116555;28;20425;-36
2023/05/28 04:36:58;;;;;;;12.65;6.80;;;;;;;11.83;100.00;102045.19;5116595;28;20084;-36
2023/05/28 04:39:23;;;;;;;12.10;6.95;;;;;;;12.00;100.00;102047.44;5116449;28;20374;-36
2023/05/28 04:41:49;;;;;;;12.02;5.93;;;;;;;11.98;100.00;102039.53;5117040;28;20028;-36
2023/05/28 04:44:15;;;;;;;12.57;5.90;;;;;;;12.05;100.00;102043.09;5116682;28;20046;-36
2023/05/28 04:46:43;;;;;;;;;;;;;;;12.26;100.00;102044.69;5117412;28;20416;-36
2023/05/28 04:49:09;;;;;;;10.90;5.45;;;;;;;12.26;100.00;102049.28;5116831;28;19939;-36
2023/05/28 04:51:36;;;;;;;10.93;5.63;;;;;;;12.36;100.00;102052.38;5116893;28;20028;-36
2023/05/28 04:54:02;;;;;;;10.07;5.78;;;;;;;12.35;100.00;102058.88;5115904;28;20028;-36
2023/05/28 04:56:28;;;;;;;13.35;6.22;;;;;;;12.47;100.00;102059.84;5116728;28;20023;-36
2023/05/28 04:58:53;;;;;;;11.77;5.82;;;;;;;12.67;100.00;102058.94;5116034;28;20360;-36
2023/05/28 05:01:19;;;;;;;10.68;6.18;;;;;;;12.65;100.00;102042.88;5116763;28;20468;-36
2023/05/28 05:03:44;;;;;;;9.48;5.95;;;;;;;12.73;99.54;102047.22;5116549;28;20035;-36
2023/05/28 05:06:11;;;;;;;11.95;6.07;;;;;;;12.74;97.18;102035.34;5116256;28;20456;-36
2023/05/28 05:08:36;;;;;;;13.10;5.93;;;;;;;12.74;99.33;102041.59;5115866;28;20027;-36
2023/05/28 05:11:02;;;;;;;9.52;5.38;;;;;;;12.91;98.58;102050.06;5115904;28;20040;-36
2023/05/28 05:13:27;;;;;;;9.38;5.70;;;;;;;12.93;99.42;102044.41;5116371;28;20031;-36
2023/05/28 05:15:52;;;;;;;15.30;6.93;;;;;;;13.00;99.08;102054.19;5116342;28;20040;-36
2023/05/28 05:18:18;;;;;;;14.98;6.00;;;;;;;13.09;97.25;102063.75;5115680;28;20024;-36
2023/05/28 05:20:43;;;;;;;;;;;;;;;13.28;96.60;102055.72;5116597;28;20032;-36
2023/05/28 05:23:09;;;;;;;13.05;5.75;;;;;;;13.35;96.10;102056.50;5115598;28;19911;-36
2023/05/28 05:25:34;;;;;;;13.23;6.90;;;;;;;13.38;95.89;102056.91;5115874;28;20032;-36
2023/05/28 05:27:59;;;;;;;12.07;5.93;;;;;;;13.45;94.99;102050.56;5115800;28;20028;-36
2023/05/28 05:30:24;;;;;;;11.43;5.60;;;;;;;13.53;95.60;102066.63;5115544;28;20058;-36
2023/05/28 05:32:50;;;;;;;11.90;6.20;;;;;;;13.61;94.22;102069.03;5115135;28;20345;-36
2023/05/28 05:35:16;;;;;;;12.65;5.68;;;;;;;13.72;94.23;102071.06;5115681;28;20312;-36
2023/05/28 05:37:41;;;;;;;11.52;5.95;;;;;;;13.77;94.88;102075.84;5115320;28;20487;-36
2023/05/28 05:40:08;;;;;;;12.73;6.00;;;;;;;13.75;94.65;102077.94;5115580;28;20023;-36
2023/05/28 05:42:34;;;;;;;13.40;5.95;;;;;;;13.64;94.74;102072.16;5115475;28;20072;-36
2023/05/28 05:44:59;;;;;;;;;;;;;;;13.73;93.79;102071.91;5115691;28;20027;-36
2023/05/28 05:47:25;;;;;;;10.57;5.85;;;;;;;13.51;95.15;102074.16;5114859;28;19908;-36
2023/05/28 05:49:50;;;;;;;;;;;;;;;13.69;93.78;102081.53;5115544;28;20031;-36
2023/05/28 05:52:16;;;;;;;16.30;6.47;;;;;;;13.74;95.62;102082.53;5115043;28;20392;-36
2023/05/28 05:54:41;;;;;;;;;;;;;;;13.97;94.30;102075.66;5115427;28;20243;-36
2023/05/28 05:57:07;;;;;;;9.63;5.17;;;;;;;14.11;92.91;102079.91;5114949;28;20004;-36
2023/05/28 05:59:32;;;;;;;;;;;;;;;14.31;92.47;102074.28;5115079;27;20063;-36
2023/05/28 06:01:57;;;;;;;10.07;5.50;;;;;;;14.30;92.46;102061.69;5114608;28;19920;-36
2023/05/28 06:04:23;;;;;;;11.90;5.13;;;;;;;14.50;91.84;102072.41;5115070;28;20265;-36
2023/05/28 06:06:48;;;;;;;;;;;;;;;14.65;90.83;102070.13;5114936;28;20027;-36
2023/05/28 06:09:13;;;;;;;10.33;4.77;;;;;;;14.53;92.05;102058.34;5114270;28;19911;-36
2023/05/28 06:11:40;;;;;;;12.38;6.20;;;;;;;14.83;91.79;102071.97;5114741;28;20285;-36
2023/05/28 06:14:06;;;;;;;10.50;5.47;;;;;;;14.92;90.29;102067.88;5114338;28;20115;-36
2023/05/28 06:16:31;;;;;;;8.85;5.35;;;;;;;15.23;90.35;102071.47;5115158;28;20028;-36
2023/05/28 06:18:57;;;;;;;;;;;;;;;15.44;90.06;102066.28;5115334;28;20452;-36
2023/05/28 06:21:25;;;;;;;11.40;5.00;;;;;;;15.60;86.82;102059.31;5114473;28;19911;-36
2023/05/28 06:23:50;;;;;;;11.35;5.90;;;;;;;15.66;85.28;102058.44;5114737;28;20111;-36
2023/05/28 06:26:16;;;;;;;;;;;;;;;15.83;84.94;102065.91;5115511;28;20102;-37
2023/05/28 06:28:41;;;;;;;10.37;5.47;;;;;;;15.69;84.73;102054.38;5115267;28;19922;-36
2023/05/28 06:31:06;;;;;;;13.18;5.50;;;;;;;15.86;86.00;102065.41;5114150;28;20281;-36
2023/05/28 06:33:31;;;;;;;;;;;;;;;16.00;86.26;102066.00;5114755;28;20039;-36
2023/05/28 06:35:57;;;;;;;9.63;5.10;;;;;;;15.98;85.10;102069.00;5114542;28;19908;-36
2023/05/28 06:38:22;;;;;;;;;;;;;;;16.12;83.87;102070.41;5114055;28;20265;-37
2023/05/28 06:40:47;;;;;;;12.27;5.70;;;;;;;15.94;82.40;102054.16;5114592;28;20260;-36
2023/05/28 06:43:13;;;;;;;;;;;;;;;16.13;83.50;102065.78;5114486;28;20292;-36
2023/05/28 06:45:38;;;;;;;10.40;5.90;;;;;;;16.13;82.19;102063.88;5115045;28;20240;-36
2023/05/28 06:48:04;;;;;;;;;;;;;;;16.24;81.92;102056.75;5114279;28;20311;-36
2023/05/28 06:50:29;;;;;;;7.65;5.43;;;;;;;16.22;82.46;102059.72;5114972;28;19907;-36
2023/05/28 06:52:55;;;;;;;;;;;;;;;16.26;81.84;102067.44;5114238;28;20059;-36
2023/05/28 06:55:20;;;;;;;10.80;5.47;;;;;;;16.23;82.34;102071.47;5114140;28;19907;-36
2023/05/28 06:57:46;;;;;;;;;;;;;;;16.32;82.47;102069.22;5114424;28;20266;-36
2023/05/28 07:00:16;;;;;;;12.27;5.25;;;;;;;16.13;82.16;102061.16;5113995;28;19915;-36
2023/05/28 07:02:42;;;;;;;11.02;5.55;;;;;;;16.19;82.76;102060.19;5114537;28;20020;-36
2023/05/28 07:05:07;;;;;;;;;;;;;;;16.34;83.29;102072.50;5114752;28;20079;-36
2023/05/28 07:07:33;;;;;;;11.02;6.07;;;;;;;16.25;82.85;102069.34;5114443;28;19912;-36
2023/05/28 07:09:58;;;;;;;;;;;;;;;16.44;83.13;102065.38;5114202;28;20039;-36
2023/05/28 07:12:23;;;;;;;11.57;5.88;;;;;;;16.42;82.64;102072.16;5113877;28;19922;-36
2023/05/28 07:14:49;;;;;;;;;;;;;;;16.64;82.33;102078.66;5114275;28;20116;-36
2023/05/28 07:17:14;;;;;;;12.13;5.90;;;;;;;16.63;81.47;102076.13;5114060;28;20318;-36
2023/05/28 07:19:40;;;;;;;;;;;;;;;16.80;81.82;102082.53;5114046;28;20031;-36
2023/05/28 07:22:05;;;;;;;12.13;5.40;;;;;;;16.76;80.30;102089.56;5116248;28;20002;-36
2023/05/28 07:24:30;;;;;;;;;;;;;;;16.78;81.41;102089.31;5118050;28;20741;-36
2023/05/28 07:26:56;;;;;;;10.18;5.53;;;;;;;16.61;81.93;102087.31;5117616;28;19912;-36
2023/05/28 07:29:21;;;;;;;;;;;;;;;16.73;81.78;102092.75;5117997;28;20111;-36
2023/05/28 07:31:46;;;;;;;11.63;6.28;;;;;;;16.54;82.04;102092.06;5118088;28;20376;-36
2023/05/28 07:34:12;;;;;;;;;;;;;;;16.66;82.04;102090.16;5118158;28;20085;-36
2023/05/28 07:36:38;;;;;;;11.98;6.10;;;;;;;16.33;81.91;102081.78;5117683;28;20259;-36
2023/05/28 07:39:03;;;;;;;;;;;;;;;16.48;81.89;102096.59;5117708;28;20024;-36
2023/05/28 07:41:29;;;;;;;13.05;6.03;;;;;;;16.20;83.68;102089.16;5117446;28;19912;-36
2023/05/28 07:43:55;;;;;;;;;;;;;;;16.32;82.21;102091.88;5118055;28;20024;-36
2023/05/28 07:46:21;;;;;;;10.13;6.13;;;;;;;16.14;84.94;102092.81;5117592;28;20251;-36
2023/05/28 07:48:48;;;;;;;10.10;5.88;;;;;;;16.07;84.89;102089.41;5117422;28;20031;-36
2023/05/28 07:51:13;;;;;;;11.23;6.15;;;;;;;16.05;84.85;102091.50;5117427;28;20134;-36
2023/05/28 07:53:39;;;;;;;;;;;;;;;16.14;83.71;102101.00;5117806;28;20138;-36
2023/05/28 07:56:05;;;;;;;10.60;5.63;;;;;;;15.93;84.93;102071.59;5118171;28;19933;-37
2023/05/28 07:58:30;;;;;;;;;;;;;;;16.16;84.25;102098.88;5117773;28;20031;-36
2023/05/28 08:00:55;;;;;;;10.95;5.55;;;;;;;16.31;85.63;102095.69;5117451;28;19973;-36
2023/05/28 08:03:22;;;;;;;;;;;;;;;16.52;84.35;102090.66;5117872;28;20038;-36
2023/05/28 08:05:47;;;;;;;8.52;5.32;;;;;;;16.59;84.92;102072.22;5117113;28;20355;-36
2023/05/28 08:08:12;;;;;;;;;;;;;;;16.89;84.53;102091.19;5117514;28;20023;-36
2023/05/28 08:10:38;;;;;;;14.35;6.35;;;;;;;17.24;83.72;102088.31;5117067;28;20011;-36
2023/05/28 08:13:03;;;;;;;;;;;;;;;17.42;83.39;102092.72;5117739;28;20035;-36
2023/05/28 08:15:28;;;;;;;10.07;5.78;;;;;;;17.68;80.68;102080.31;5116688;28;20002;-36
2023/05/28 08:17:54;;;;;;;11.05;5.28;;;;;;;17.87;80.51;102073.53;5116860;28;20058;-36
2023/05/28 08:20:22;;;;;;;;;;;;;;;18.11;79.35;102076.91;5117786;28;20110;-37
2023/05/28 08:22:47;;;;;;;9.52;5.32;;;;;;;18.32;75.38;102072.56;5116833;28;20295;-37
2023/05/28 08:25:13;;;;;;;13.13;5.10;;;;;;;18.52;74.03;102074.72;5117087;28;20019;-37
2023/05/28 08:27:38;;;;;;;;;;;;;;;18.66;76.75;102073.25;5116631;28;20401;-37
2023/05/28 08:30:04;;;;;;;11.02;4.50;;;;;;;18.85;70.23;102076.53;5116637;28;19912;-37
2023/05/28 08:32:30;;;;;;;13.07;4.78;;;;;;;18.96;70.18;102075.56;5116134;28;20114;-37
2023/05/28 08:34:55;;;;;;;10.88;4.78;;;;;;;19.02;69.37;102076.44;5116489;28;20460;-37
2023/05/28 08:37:21;;;;;;;10.80;4.40;;;;;;;19.00;68.19;102071.22;5116856;28;20024;-37
2023/05/28 08:39:46;;;;;;;9.93;5.22;;;;;;;19.12;67.55;102071.06;5116382;28;20171;-37
2023/05/28 08:42:12;;;;;;;7.68;4.30;;;;;;;19.12;66.72;102062.84;5116848;28;20031;-37
2023/05/28 08:44:37;;;;;;;8.20;4.25;;;;;;;19.25;65.39;102076.13;5116027;28;20480;-37
2023/05/28 08:47:03;;;;;;;;;;;;;;;19.47;66.60;102072.47;5117374;28;20475;-37
2023/05/28 08:49:47;;;;;;;9.75;4.45;;;;;;;19.63;63.93;102068.84;5116061;28;19907;-37
2023/05/28 08:52:15;;;;;;;8.48;4.00;;;;;;;19.84;62.63;102055.25;5116255;28;20066;-37
2023/05/28 08:54:41;;;;;;;7.72;3.75;;;;;;;19.79;59.04;102069.78;5116658;28;20043;-37
2023/05/28 08:57:07;;;;;;;7.47;4.28;;;;;;;19.83;59.73;102059.09;5116211;28;20040;-37
2023/05/28 08:59:32;;;;;;;9.13;3.85;;;;;;;20.06;59.21;102056.78;5116409;28;20111;-38
2023/05/28 09:01:57;;;;;;;8.60;4.05;;;;;;;20.18;57.81;102048.34;5117204;28;20047;-37
2023/05/28 09:04:23;;;;;;;7.35;3.25;;;;;;;20.58;58.58;102053.22;5115939;28;20035;-37
2023/05/28 09:06:52;;;;;;;6.78;2.92;;;;;;;20.70;54.95;102057.69;5116022;28;20031;-37
2023/05/28 09:09:18;;;;;;;7.72;2.97;;;;;;;20.76;51.92;102049.16;5115893;28;20031;-37
2023/05/28 09:11:43;;;;;;;7.75;2.88;;;;;;;20.75;50.03;102053.03;5115879;28;20032;-37
2023/05/28 09:14:10;;;;;;;7.60;2.65;;;;;;;20.99;51.12;102044.28;5116576;28;20030;-37
2023/05/28 09:16:39;;;;;;;6.10;3.10;;;;;;;21.18;51.00;102033.56;5115732;28;20468;-37
2023/05/28 09:19:05;;;;;;;7.97;2.92;;;;;;;21.32;50.35;102043.78;5116401;28;20023;-37
2023/05/28 09:21:31;;;;;;;7.53;3.00;;;;;;;21.30;49.97;102034.13;5115662;28;20467;-37
2023/05/28 09:23:58;;;;;;;7.00;2.90;;;;;;;21.51;49.71;102046.81;5115528;28;20460;-37
2023/05/28 09:26:28;;;;;;;7.53;2.72;;;;;;;21.58;48.54;102049.31;5115805;28;20036;-37
2023/05/28 09:28:53;;;;;;;5.47;2.65;;;;;;;21.51;47.07;102044.06;5115190;28;20027;-37
2023/05/28 09:31:19;;;;;;;5.55;2.45;;;;;;;21.53;47.33;102035.56;5115483;28;20038;-37
2023/05/28 09:33:45;;;;;;;5.45;2.53;;;;;;;21.51;49.26;102033.06;5115341;28;20106;-37
2023/05/28 09:36:11;;;;;;;4.75;2.55;;;;;;;21.45;50.00;102036.09;5115429;27;20106;-37
2023/05/28 09:38:41;;;;;;;4.97;2.50;;;;;;;21.26;48.27;102028.34;5115267;28;20103;-37
2023/05/28 09:41:23;;;;;;;6.35;3.03;;;;;;;21.56;49.06;102037.75;5116056;27;20082;-37
2023/05/28 09:44:02;;;;;;;4.90;2.58;;;;;;;21.77;48.82;102033.88;5114599;28;20027;-37
2023/05/28 09:46:29;;;;;;;5.88;2.67;;;;;;;21.85;46.53;102036.06;5115478;28;20024;-37
2023/05/28 09:48:55;;;;;;;6.20;3.13;;;;;;;21.80;46.67;102038.00;5115396;28;20032;-37
2023/05/28 09:51:24;;;;;;;5.18;2.30;;;;;;;21.90;46.96;102037.97;5115434;28;20038;-37
2023/05/28 09:53:55;;;;;;;10.10;2.78;;;;;;;21.85;46.29;102036.06;5114990;28;20076;-37
2023/05/28 09:56:21;;;;;;;5.78;2.63;;;;;;;21.91;47.18;102038.78;5115856;28;20032;-37
2023/05/28 09:58:50;;;;;;;6.82;2.70;;;;;;;22.03;46.53;102020.06;5114910;28;20103;-37
2023/05/28 10:01:23;;;;;;;6.35;2.70;;;;;;;22.25;44.81;102039.00;5115537;28;20105;-37
2023/05/28 10:04:05;;;;;;;6.25;2.63;;;;;;;22.49;45.55;102029.00;5114565;28;20031;-38
2023/05/28 10:06:33;;;;;;;5.95;2.50;;;;;;;22.27;43.07;102020.28;5114606;28;20027;-37
2023/05/28 10:09:00;;;;;;;6.00;2.72;;;;;;;22.47;44.30;102022.97;5114460;28;20031;-37
2023/05/28 10:11:29;;;;;;;6.88;2.75;;;;;;;22.40;42.99;102027.97;5114649;28;20028;-37
2023/05/28 10:13:56;;;;;;;8.10;3.00;;;;;;;22.51;44.97;102026.81;5114625;27;20384;-37
2023/05/28 10:16:22;;;;;;;5.90;2.38;;;;;;;22.57;43.51;102020.16;5114358;28;20036;-37
2023/05/28 10:18:48;;;;;;;5.57;2.90;;;;;;;22.80;42.81;102029.69;5114816;28;20027;-37
2023/05/28 10:21:14;;;;;;;5.30;2.45;;;;;;;22.79;43.87;102017.00;5114788;28;20024;-37
2023/05/28 10:23:41;;;;;;;4.63;2.40;;;;;;;22.95;43.10;102030.72;5114525;28;20084;-37
2023/05/28 10:26:07;;;;;;;5.10;2.55;;;;;;;22.83;43.23;102029.09;5115058;28;20030;-37
2023/05/28 10:28:33;;;;;;;5.85;2.80;;;;;;;22.60;41.37;102030.63;5114395;28;20070;-37
2023/05/28 10:31:04;;;;;;;5.30;2.67;;;;;;;22.48;42.59;102021.03;5114390;28;20039;-37
2023/05/28 10:33:29;;;;;;;6.90;2.72;;;;;;;22.36;42.38;102033.19;5114281;28;20024;-37
2023/05/28 10:35:57;;;;;;;5.10;2.47;;;;;;;22.28;42.96;102016.41;5114108;28;20103;-37
2023/05/28 10:38:23;;;;;;;6.38;2.67;;;;;;;22.35;42.94;102026.03;5114242;28;20032;-37
2023/05/28 10:40:48;;;;;;;4.70;2.30;;;;;;;22.16;42.83;102024.19;5113972;28;20038;-37
2023/05/28 10:43:38;;;;;;;7.35;2.75;;;;;;;22.24;43.79;102032.69;5114248;28;20026;-37
2023/05/28 10:46:19;;;;;;;6.43;2.60;;;;;;;22.11;42.62;102038.81;5114152;28;20024;-37
2023/05/28 10:49:14;;;;;;;5.38;2.50;;;;;;;22.24;43.46;102046.47;5114159;28;20032;-37
2023/05/28 10:51:52;;;;;;;6.72;2.80;;;;;;;22.42;41.88;102036.75;5114149;28;20020;-37
2023/05/28 10:54:23;;;;;;;5.97;2.45;;;;;;;22.42;42.02;102038.69;5114022;28;20533;-37
2023/05/28 10:57:10;;;;;;;5.80;2.55;;;;;;;22.59;42.60;102023.47;5114198;28;20368;-37
2023/05/28 10:59:59;;;;;;;7.18;2.53;;;;;;;22.72;40.44;102041.28;5114531;28;20038;-37
2023/05/28 11:02:32;;;;;;;4.32;2.35;;;;;;;23.02;41.31;102036.75;5101531;28;20116;-37
2023/05/28 11:05:03;;;;;;;5.25;2.33;;;;;;;23.12;40.39;102040.25;5113992;28;20073;-37
2023/05/28 11:07:36;;;;;;;4.70;2.47;;;;;;;23.17;39.31;102042.16;5114302;28;20395;-37
2023/05/28 11:10:07;;;;;;;4.97;2.70;;;;;;;23.19;39.26;102031.66;5113948;28;20035;-37
2023/05/28 11:12:36;;;;;;;6.07;2.70;;;;;;;23.38;39.71;102029.03;5113923;28;20028;-37
2023/05/28 11:15:01;;;;;;;6.28;2.67;;;;;;;23.31;40.96;102034.88;5114335;28;20460;-37
2023/05/28 11:17:27;;;;;;;5.88;2.55;;;;;;;23.46;38.08;102036.69;5114716;28;20035;-37
2023/05/28 11:19:53;;;;;;;7.63;2.55;;;;;;;23.53;37.54;102039.13;5113435;28;20019;-37
2023/05/28 11:22:20;;;;;;;3.42;2.40;;;;;;;23.36;37.38;102043.09;5114122;28;20028;-37
2023/05/28 11:24:58;;;;;;;6.07;2.42;;;;;;;23.81;39.82;102037.50;5113759;28;20039;-37
2023/05/28 11:27:25;;;;;;;5.55;2.50;;;;;;;24.01;39.23;102034.53;5113538;28;20060;-37
2023/05/28 11:29:52;;;;;;;6.10;2.20;;;;;;;24.05;39.02;102038.34;5113506;28;20368;-37